Little Rock Air Force Base
KLRF : now visible

Airfield :











YOU CAN JOIN US ON...

 
LOGIN :

Register | Disclaimer

   EN    FR    IT 

 









Legend :    VFR   Marginal VFR   IFR   Intensive IFR   Very Intensive IFR
Visi :
Ceiling :
>= 8 km
>= 3000ft
5 to 8 km
1000 to 3000 ft
1500m to 5 km
500 to 1000 ft
800 to 1500m
200 to 500 ft
< 800m
< 200 ft
Symbols :   Thunderstorms  Fog  Heavy snow  Heavy precipitations  Wind > 20 kt






- Airport Elevation : 311 ft


KLRF - Little Rock Air Force Base

CURRENT METAR :
  • 071555Z AUTO 04007KT 10SM CLR 23/13 A3026 RMK AO2 SLP248 T02270126

EXPIRED METARs :
  • 071455Z AUTO 05006KT 10SM CLR 21/12 A3025 RMK AO2 SLP245 T02100121 52019
  • 071355Z AUTO 07003KT 10SM CLR 18/12 A3024 RMK AO2 SLP242 T01840119

TAF TAF KLRF
Valid from the 07 at 15:00 until the 08 at 21:00 UTC


071500Z 0715/0821 VRB06KT 9999 SKC QNH3024INS
BECMG 0716/0717 04010KT 9999 FEW060 SCT200 QNH3018INS TX27/0720Z TN10/0811Z
KZME FIR / North America



MET'MAP, your aeronautical weather chart ! - Copyright ORBIFLY December 2007 - Disclaimer

ORBIFLY MET'MAP TEAM :

Programming & Development : Alexandra Zaïnal
Original concept : Baudouin d'Aumeries
Technical & hardware support : Manuel Goepfert
Assistance : Marc-Olivier Méhu




SOURCES & CREDITS :

   NOAA       Earth
Advisory